METAR Data
IDs: Format: Raw Decoded Include TAF

Data at: 1334 UTC 14 Dec 2019

METAR for:KAXA (Algona Muni, IA, US)
Text:KAXA 141315Z AUTO 33014KT 8SM OVC032 M09/M11 A2989 RMK A01
Temperature: -9.0°C ( 16°F)
Dewpoint:-11.0°C ( 12°F) [RH = 85%]
Pressure (altimeter):29.89 inches Hg (1012.3 mb)
Winds:from the NNW (330 degrees) at 16 MPH (14 knots; 7.2 m/s)
Visibility: 8 sm ( 13 km)
Ceiling:3200 feet AGL
Clouds: overcast cloud deck at 3200 feet AGL
QC Flag:automated observation with no human augmentation